Impacts TAF Board INFO
FOR SITUATIONAL AWARENESS. NOT TO BE USED FOR FLIGHT PLANNING PURPOSES.
IDs:

KLAS - Las Vegas/McCarran I, NV, US

Issued at 2320 UTC 24 Jun 2017
Updated at 0151 UTC 25 Jun 2017
Potential Impact None Slight Moderate High
Time0056Z 25/02Z 25/03Z 25/04Z 25/05Z 25/06Z 25/07Z 25/08Z 25/09Z 25/10Z 25/11Z 25/12Z 25/13Z 25/14Z>>
Type OBS PRVL PRVL PRVL PRVL PRVL PRVL PRVL PRVL PRVL PRVL PRVL PRVL PRVL
VIS 10 >6 >6 >6 >6 >6 >6 >6 >6 >6 >6 >6 >6 >6
CIG -- -- -- -- -- -- -- -- -- -- -- -- -- --
Cover FEW SCT SCT SCT SCT SCT SCT SCT SCT SCT SCT SCT SCT FEW
FltCat VFR VFR VFR VFR VFR VFR VFR VFR VFR VFR VFR VFR VFR VFR
WX -- -- -- -- -- -- -- -- -- -- -- -- -- --
WDir VRB VRB VRB 240 240 240 240 240 240 240 240 240 240 VRB
WSpd 3 5 5 7 7 7 7 7 7 7 7 7 7 4
WGst -- -- -- -- -- -- -- -- -- -- -- -- -- --

Raw TAF
KLAS 242320Z 2500/2524 VRB05KT P6SM SCT250
  FM250400 24007KT P6SM SCT250
  FM251400 VRB04KT P6SM FEW250
  FM252000 24008KT P6SM FEW250


Raw METAR
KLAS 250056Z VRB03KT 10SM FEW130 FEW250 44/M13 A2976 RMK AO2 SLP042 T04391133
KLAS 242356Z 00000KT 10SM FEW130 FEW250 45/M13 A2978 RMK AO2 SLP048 T04501133 10450 20400 56022
KLAS 242256Z VRB04KT 10SM FEW130 SCT250 44/M14 A2980 RMK AO2 SLP054 T04391144

METAR Board
Radar Display
Forecast Discussion

FOR SITUATIONAL AWARENESS. NOT TO BE USED FOR FLIGHT PLANNING PURPOSES.

Page loaded:  01:51 UTC  |   06:51 PM Pacific  |   07:51 PM Mountain  |   08:51 PM Central  |   09:51 PM Eastern

 

ADVISORIES

FORECASTS

FORECASTS

OBSERVATIONS

USER TOOLS

ABOUT US